sensor_id;sensor_type;location;lat;lon;timestamp;temperature;humidity
56300;DHT22;42209;6.376;-10.782;2024-01-10T00:00:06;24.00;45.50
56300;DHT22;42209;6.376;-10.782;2024-01-10T00:02:34;23.90;44.70
56300;DHT22;42209;6.376;-10.782;2024-01-10T00:05:02;23.80;44.40
56300;DHT22;42209;6.376;-10.782;2024-01-10T00:07:32;23.80;43.30
56300;DHT22;42209;6.376;-10.782;2024-01-10T00:10:00;23.80;42.80
56300;DHT22;42209;6.376;-10.782;2024-01-10T00:12:29;23.80;42.00
56300;DHT22;42209;6.376;-10.782;2024-01-10T00:14:57;23.80;41.50
56300;DHT22;42209;6.376;-10.782;2024-01-10T00:17:25;23.90;41.00
56300;DHT22;42209;6.376;-10.782;2024-01-10T00:19:54;23.90;40.70
56300;DHT22;42209;6.376;-10.782;2024-01-10T00:22:22;23.90;40.40
56300;DHT22;42209;6.376;-10.782;2024-01-10T00:24:50;24.00;43.40
56300;DHT22;42209;6.376;-10.782;2024-01-10T00:27:19;24.10;46.10
56300;DHT22;42209;6.376;-10.782;2024-01-10T00:29:47;24.20;49.10
56300;DHT22;42209;6.376;-10.782;2024-01-10T00:32:15;24.40;50.50
56300;DHT22;42209;6.376;-10.782;2024-01-10T00:34:44;24.50;51.40
56300;DHT22;42209;6.376;-10.782;2024-01-10T00:37:12;24.40;47.80
56300;DHT22;42209;6.376;-10.782;2024-01-10T00:39:41;24.30;46.10
56300;DHT22;42209;6.376;-10.782;2024-01-10T00:42:09;24.10;47.40
56300;DHT22;42209;6.376;-10.782;2024-01-10T00:44:37;24.20;51.20
56300;DHT22;42209;6.376;-10.782;2024-01-10T00:47:06;24.40;53.10
56300;DHT22;42209;6.376;-10.782;2024-01-10T00:49:34;24.50;53.60
56300;DHT22;42209;6.376;-10.782;2024-01-10T00:52:03;24.60;51.80
56300;DHT22;42209;6.376;-10.782;2024-01-10T00:54:31;24.40;48.60
56300;DHT22;42209;6.376;-10.782;2024-01-10T00:56:59;24.20;47.20
56300;DHT22;42209;6.376;-10.782;2024-01-10T00:59:27;24.00;46.40
56300;DHT22;42209;6.376;-10.782;2024-01-10T01:01:56;24.00;45.60
56300;DHT22;42209;6.376;-10.782;2024-01-10T01:04:24;23.90;44.70
56300;DHT22;42209;6.376;-10.782;2024-01-10T01:06:53;23.90;44.00
56300;DHT22;42209;6.376;-10.782;2024-01-10T01:09:22;23.80;43.10
56300;DHT22;42209;6.376;-10.782;2024-01-10T01:11:51;23.80;42.70
56300;DHT22;42209;6.376;-10.782;2024-01-10T01:14:20;23.80;42.10
56300;DHT22;42209;6.376;-10.782;2024-01-10T01:16:48;23.80;41.30
56300;DHT22;42209;6.376;-10.782;2024-01-10T01:19:17;23.90;40.80
56300;DHT22;42209;6.376;-10.782;2024-01-10T01:21:45;23.90;40.70
56300;DHT22;42209;6.376;-10.782;2024-01-10T01:24:13;23.90;42.90
56300;DHT22;42209;6.376;-10.782;2024-01-10T01:26:42;24.10;46.30
56300;DHT22;42209;6.376;-10.782;2024-01-10T01:29:10;24.20;48.70
56300;DHT22;42209;6.376;-10.782;2024-01-10T01:31:38;24.30;50.60
56300;DHT22;42209;6.376;-10.782;2024-01-10T01:34:07;24.40;51.60
56300;DHT22;42209;6.376;-10.782;2024-01-10T01:36:35;24.50;49.70
56300;DHT22;42209;6.376;-10.782;2024-01-10T01:39:04;24.40;46.80
56300;DHT22;42209;6.376;-10.782;2024-01-10T01:41:32;24.20;46.00
56300;DHT22;42209;6.376;-10.782;2024-01-10T01:44:00;24.20;50.30
56300;DHT22;42209;6.376;-10.782;2024-01-10T01:46:29;24.30;52.70
56300;DHT22;42209;6.376;-10.782;2024-01-10T01:48:58;24.40;54.30
56300;DHT22;42209;6.376;-10.782;2024-01-10T01:51:28;24.60;53.10
56300;DHT22;42209;6.376;-10.782;2024-01-10T01:53:57;24.40;49.10
56300;DHT22;42209;6.376;-10.782;2024-01-10T01:56:25;24.20;47.50
56300;DHT22;42209;6.376;-10.782;2024-01-10T01:58:54;24.00;46.60
56300;DHT22;42209;6.376;-10.782;2024-01-10T02:01:22;23.90;45.70
56300;DHT22;42209;6.376;-10.782;2024-01-10T02:03:51;23.90;44.90
56300;DHT22;42209;6.376;-10.782;2024-01-10T02:06:19;23.80;44.00
56300;DHT22;42209;6.376;-10.782;2024-01-10T02:08:50;23.70;43.40
56300;DHT22;42209;6.376;-10.782;2024-01-10T02:11:19;23.70;42.60
56300;DHT22;42209;6.376;-10.782;2024-01-10T02:13:49;23.70;42.10
56300;DHT22;42209;6.376;-10.782;2024-01-10T02:16:18;23.80;41.50
56300;DHT22;42209;6.376;-10.782;2024-01-10T02:18:46;23.70;41.00
56300;DHT22;42209;6.376;-10.782;2024-01-10T02:21:14;23.80;40.50
56300;DHT22;42209;6.376;-10.782;2024-01-10T02:23:43;23.90;42.90
56300;DHT22;42209;6.376;-10.782;2024-01-10T02:26:11;24.00;46.10
56300;DHT22;42209;6.376;-10.782;2024-01-10T02:28:40;24.10;48.30
56300;DHT22;42209;6.376;-10.782;2024-01-10T02:31:08;24.20;50.30
56300;DHT22;42209;6.376;-10.782;2024-01-10T02:33:37;24.40;51.20
56300;DHT22;42209;6.376;-10.782;2024-01-10T02:36:05;24.50;52.00
56300;DHT22;42209;6.376;-10.782;2024-01-10T02:38:33;24.40;48.20
56300;DHT22;42209;6.376;-10.782;2024-01-10T02:41:02;24.20;46.50
56300;DHT22;42209;6.376;-10.782;2024-01-10T02:43:30;24.10;48.30
56300;DHT22;42209;6.376;-10.782;2024-01-10T02:45:58;24.20;51.70
56300;DHT22;42209;6.376;-10.782;2024-01-10T02:48:27;24.30;53.40
56300;DHT22;42209;6.376;-10.782;2024-01-10T02:50:55;24.40;53.90
56300;DHT22;42209;6.376;-10.782;2024-01-10T02:53:23;24.50;52.50
56300;DHT22;42209;6.376;-10.782;2024-01-10T02:55:52;24.40;49.10
56300;DHT22;42209;6.376;-10.782;2024-01-10T02:58:20;24.20;48.20
56300;DHT22;42209;6.376;-10.782;2024-01-10T03:00:48;24.00;46.50
56300;DHT22;42209;6.376;-10.782;2024-01-10T03:03:17;23.90;45.70
56300;DHT22;42209;6.376;-10.782;2024-01-10T03:05:45;23.80;44.90
56300;DHT22;42209;6.376;-10.782;2024-01-10T03:08:13;23.80;44.10
56300;DHT22;42209;6.376;-10.782;2024-01-10T03:10:42;23.70;43.40
56300;DHT22;42209;6.376;-10.782;2024-01-10T03:13:10;23.70;42.70
56300;DHT22;42209;6.376;-10.782;2024-01-10T03:15:38;23.70;41.90
56300;DHT22;42209;6.376;-10.782;2024-01-10T03:18:07;23.80;41.30
56300;DHT22;42209;6.376;-10.782;2024-01-10T03:20:35;23.80;40.90
56300;DHT22;42209;6.376;-10.782;2024-01-10T03:23:03;23.90;43.40
56300;DHT22;42209;6.376;-10.782;2024-01-10T03:25:32;24.00;46.40
56300;DHT22;42209;6.376;-10.782;2024-01-10T03:28:00;24.10;48.90
56300;DHT22;42209;6.376;-10.782;2024-01-10T03:30:28;24.20;50.50
56300;DHT22;42209;6.376;-10.782;2024-01-10T03:32:57;24.30;51.80
56300;DHT22;42209;6.376;-10.782;2024-01-10T03:35:25;24.40;52.40
56300;DHT22;42209;6.376;-10.782;2024-01-10T03:37:54;24.40;49.50
56300;DHT22;42209;6.376;-10.782;2024-01-10T03:40:22;24.20;47.10
56300;DHT22;42209;6.376;-10.782;2024-01-10T03:42:50;24.00;47.20
56300;DHT22;42209;6.376;-10.782;2024-01-10T03:45:19;24.10;51.30
56300;DHT22;42209;6.376;-10.782;2024-01-10T03:47:49;24.20;53.30
56300;DHT22;42209;6.376;-10.782;2024-01-10T03:50:19;24.30;54.20
56300;DHT22;42209;6.376;-10.782;2024-01-10T03:52:48;24.50;54.40
56300;DHT22;42209;6.376;-10.782;2024-01-10T03:55:16;24.40;50.10
56300;DHT22;42209;6.376;-10.782;2024-01-10T03:57:44;24.20;48.30
56300;DHT22;42209;6.376;-10.782;2024-01-10T04:00:13;24.00;47.10
56300;DHT22;42209;6.376;-10.782;2024-01-10T04:02:41;23.90;46.20
56300;DHT22;42209;6.376;-10.782;2024-01-10T04:05:10;23.70;45.40
56300;DHT22;42209;6.376;-10.782;2024-01-10T04:07:43;23.70;44.60
56300;DHT22;42209;6.376;-10.782;2024-01-10T04:10:13;23.70;43.90
56300;DHT22;42209;6.376;-10.782;2024-01-10T04:12:43;23.60;43.10
56300;DHT22;42209;6.376;-10.782;2024-01-10T04:15:12;23.60;42.50
56300;DHT22;42209;6.376;-10.782;2024-01-10T04:17:40;23.60;42.00
56300;DHT22;42209;6.376;-10.782;2024-01-10T04:20:08;23.70;41.70
56300;DHT22;42209;6.376;-10.782;2024-01-10T04:22:37;23.70;43.50
56300;DHT22;42209;6.376;-10.782;2024-01-10T04:25:06;23.90;46.80
56300;DHT22;42209;6.376;-10.782;2024-01-10T04:27:35;24.00;49.50
56300;DHT22;42209;6.376;-10.782;2024-01-10T04:30:04;24.10;51.00
56300;DHT22;42209;6.376;-10.782;2024-01-10T04:32:32;24.20;52.20
56300;DHT22;42209;6.376;-10.782;2024-01-10T04:35:01;24.30;52.90
56300;DHT22;42209;6.376;-10.782;2024-01-10T04:37:30;24.40;52.70
56300;DHT22;42209;6.376;-10.782;2024-01-10T04:39:58;24.40;48.60
56300;DHT22;42209;6.376;-10.782;2024-01-10T04:42:26;24.10;47.20
56300;DHT22;42209;6.376;-10.782;2024-01-10T04:44:54;24.00;50.20
56300;DHT22;42209;6.376;-10.782;2024-01-10T04:47:23;24.10;52.80
56300;DHT22;42209;6.376;-10.782;2024-01-10T04:49:51;24.20;54.60
56300;DHT22;42209;6.376;-10.782;2024-01-10T04:52:20;24.40;54.80
56300;DHT22;42209;6.376;-10.782;2024-01-10T04:54:48;24.50;53.50
56300;DHT22;42209;6.376;-10.782;2024-01-10T04:57:16;24.30;49.70
56300;DHT22;42209;6.376;-10.782;2024-01-10T04:59:46;24.10;48.30
56300;DHT22;42209;6.376;-10.782;2024-01-10T05:02:14;23.90;47.20
56300;DHT22;42209;6.376;-10.782;2024-01-10T05:04:43;23.80;46.40
56300;DHT22;42209;6.376;-10.782;2024-01-10T05:07:11;23.70;45.50
56300;DHT22;42209;6.376;-10.782;2024-01-10T05:09:40;23.60;44.60
56300;DHT22;42209;6.376;-10.782;2024-01-10T05:12:08;23.60;43.90
56300;DHT22;42209;6.376;-10.782;2024-01-10T05:14:37;23.60;43.20
56300;DHT22;42209;6.376;-10.782;2024-01-10T05:17:05;23.60;42.40
56300;DHT22;42209;6.376;-10.782;2024-01-10T05:19:33;23.60;41.80
56300;DHT22;42209;6.376;-10.782;2024-01-10T05:22:02;23.60;41.00
56300;DHT22;42209;6.376;-10.782;2024-01-10T05:24:31;23.70;41.00
56300;DHT22;42209;6.376;-10.782;2024-01-10T05:26:59;23.70;44.20
56300;DHT22;42209;6.376;-10.782;2024-01-10T05:29:30;23.90;47.10
56300;DHT22;42209;6.376;-10.782;2024-01-10T05:31:59;24.00;49.80
56300;DHT22;42209;6.376;-10.782;2024-01-10T05:34:27;24.10;50.80
56300;DHT22;42209;6.376;-10.782;2024-01-10T05:36:56;24.20;51.80
56300;DHT22;42209;6.376;-10.782;2024-01-10T05:39:24;24.30;52.40
56300;DHT22;42209;6.376;-10.782;2024-01-10T05:41:53;24.40;52.70
56300;DHT22;42209;6.376;-10.782;2024-01-10T05:44:21;24.30;48.70
56300;DHT22;42209;6.376;-10.782;2024-01-10T05:46:50;24.10;47.20
56300;DHT22;42209;6.376;-10.782;2024-01-10T05:49:18;24.00;49.50
56300;DHT22;42209;6.376;-10.782;2024-01-10T05:51:47;24.00;52.90
56300;DHT22;42209;6.376;-10.782;2024-01-10T05:54:15;24.10;54.60
56300;DHT22;42209;6.376;-10.782;2024-01-10T05:56:43;24.30;54.50
56300;DHT22;42209;6.376;-10.782;2024-01-10T05:59:11;24.40;54.20
56300;DHT22;42209;6.376;-10.782;2024-01-10T06:01:40;24.30;49.90
56300;DHT22;42209;6.376;-10.782;2024-01-10T06:04:08;24.10;48.30
56300;DHT22;42209;6.376;-10.782;2024-01-10T06:06:36;23.90;47.30
56300;DHT22;42209;6.376;-10.782;2024-01-10T06:09:05;23.70;46.50
56300;DHT22;42209;6.376;-10.782;2024-01-10T06:11:33;23.60;45.60
56300;DHT22;42209;6.376;-10.782;2024-01-10T06:14:01;23.60;44.90
56300;DHT22;42209;6.376;-10.782;2024-01-10T06:16:30;23.60;47.00
56300;DHT22;42209;6.376;-10.782;2024-01-10T06:18:58;23.80;50.10
56300;DHT22;42209;6.376;-10.782;2024-01-10T06:21:27;23.90;52.40
56300;DHT22;42209;6.376;-10.782;2024-01-10T06:23:55;24.10;54.10
56300;DHT22;42209;6.376;-10.782;2024-01-10T06:26:24;24.20;55.30
56300;DHT22;42209;6.376;-10.782;2024-01-10T06:28:52;24.20;56.00
56300;DHT22;42209;6.376;-10.782;2024-01-10T06:31:21;24.40;56.60
56300;DHT22;42209;6.376;-10.782;2024-01-10T06:33:49;24.30;52.00
56300;DHT22;42209;6.376;-10.782;2024-01-10T06:36:17;24.10;49.80
56300;DHT22;42209;6.376;-10.782;2024-01-10T06:38:46;23.90;48.50
56300;DHT22;42209;6.376;-10.782;2024-01-10T06:41:14;23.70;47.60
56300;DHT22;42209;6.376;-10.782;2024-01-10T06:43:43;23.70;46.50
56300;DHT22;42209;6.376;-10.782;2024-01-10T06:46:11;23.60;45.70
56300;DHT22;42209;6.376;-10.782;2024-01-10T06:48:39;23.60;44.70
56300;DHT22;42209;6.376;-10.782;2024-01-10T06:51:13;23.50;43.90
56300;DHT22;42209;6.376;-10.782;2024-01-10T06:53:42;23.50;43.20
56300;DHT22;42209;6.376;-10.782;2024-01-10T06:56:10;23.50;42.40
56300;DHT22;42209;6.376;-10.782;2024-01-10T06:58:38;23.60;41.90
56300;DHT22;42209;6.376;-10.782;2024-01-10T07:01:13;23.60;44.10
56300;DHT22;42209;6.376;-10.782;2024-01-10T07:03:43;23.70;47.20
56300;DHT22;42209;6.376;-10.782;2024-01-10T07:06:11;23.90;49.30
56300;DHT22;42209;6.376;-10.782;2024-01-10T07:08:40;24.00;51.60
56300;DHT22;42209;6.376;-10.782;2024-01-10T07:11:08;24.10;54.90
56300;DHT22;42209;6.376;-10.782;2024-01-10T07:13:37;24.30;56.70
56300;DHT22;42209;6.376;-10.782;2024-01-10T07:16:05;24.30;53.70
56300;DHT22;42209;6.376;-10.782;2024-01-10T07:18:34;24.20;51.90
56300;DHT22;42209;6.376;-10.782;2024-01-10T07:21:02;24.10;53.50
56300;DHT22;42209;6.376;-10.782;2024-01-10T07:23:30;24.20;57.80
56300;DHT22;42209;6.376;-10.782;2024-01-10T07:25:59;24.30;59.40
56300;DHT22;42209;6.376;-10.782;2024-01-10T07:28:27;24.40;60.90
56300;DHT22;42209;6.376;-10.782;2024-01-10T07:30:56;24.40;58.20
56300;DHT22;42209;6.376;-10.782;2024-01-10T07:33:24;24.20;54.30
56300;DHT22;42209;6.376;-10.782;2024-01-10T07:35:53;23.90;52.50
56300;DHT22;42209;6.376;-10.782;2024-01-10T07:38:21;23.80;50.90
56300;DHT22;42209;6.376;-10.782;2024-01-10T07:40:50;23.70;49.90
56300;DHT22;42209;6.376;-10.782;2024-01-10T07:43:18;23.60;49.50
56300;DHT22;42209;6.376;-10.782;2024-01-10T07:45:46;23.70;53.30
56300;DHT22;42209;6.376;-10.782;2024-01-10T07:48:15;23.90;55.30
56300;DHT22;42209;6.376;-10.782;2024-01-10T07:50:43;24.00;57.20
56300;DHT22;42209;6.376;-10.782;2024-01-10T07:53:12;24.10;57.90
56300;DHT22;42209;6.376;-10.782;2024-01-10T07:55:40;24.20;59.00
56300;DHT22;42209;6.376;-10.782;2024-01-10T07:58:09;24.30;59.80
56300;DHT22;42209;6.376;-10.782;2024-01-10T08:00:37;24.40;60.20
56300;DHT22;42209;6.376;-10.782;2024-01-10T08:03:05;24.30;55.80
56300;DHT22;42209;6.376;-10.782;2024-01-10T08:05:34;24.10;53.00
56300;DHT22;42209;6.376;-10.782;2024-01-10T08:08:03;23.90;51.80
56300;DHT22;42209;6.376;-10.782;2024-01-10T08:10:32;23.70;50.10
56300;DHT22;42209;6.376;-10.782;2024-01-10T08:13:02;23.60;49.20
56300;DHT22;42209;6.376;-10.782;2024-01-10T08:15:31;23.60;50.90
56300;DHT22;42209;6.376;-10.782;2024-01-10T08:18:00;23.60;49.70
56300;DHT22;42209;6.376;-10.782;2024-01-10T08:20:28;23.50;48.40
56300;DHT22;42209;6.376;-10.782;2024-01-10T08:22:57;23.50;47.70
56300;DHT22;42209;6.376;-10.782;2024-01-10T08:25:25;23.50;46.70
56300;DHT22;42209;6.376;-10.782;2024-01-10T08:27:54;23.50;46.20
56300;DHT22;42209;6.376;-10.782;2024-01-10T08:30:22;23.60;47.40
56300;DHT22;42209;6.376;-10.782;2024-01-10T08:32:52;23.60;45.80
56300;DHT22;42209;6.376;-10.782;2024-01-10T08:35:21;23.60;45.40
56300;DHT22;42209;6.376;-10.782;2024-01-10T08:37:55;23.60;46.60
56300;DHT22;42209;6.376;-10.782;2024-01-10T08:40:23;23.70;50.00
56300;DHT22;42209;6.376;-10.782;2024-01-10T08:42:52;23.80;52.30
56300;DHT22;42209;6.376;-10.782;2024-01-10T08:45:20;24.00;54.20
56300;DHT22;42209;6.376;-10.782;2024-01-10T08:47:50;24.10;55.90
56300;DHT22;42209;6.376;-10.782;2024-01-10T08:50:23;24.20;56.90
56300;DHT22;42209;6.376;-10.782;2024-01-10T08:52:52;24.30;57.50
56300;DHT22;42209;6.376;-10.782;2024-01-10T08:55:20;24.30;55.40
56300;DHT22;42209;6.376;-10.782;2024-01-10T08:57:48;24.20;52.70
56300;DHT22;42209;6.376;-10.782;2024-01-10T09:00:17;23.90;51.70
56300;DHT22;42209;6.376;-10.782;2024-01-10T09:02:45;24.00;56.30
56300;DHT22;42209;6.376;-10.782;2024-01-10T09:05:13;24.00;58.40
56300;DHT22;42209;6.376;-10.782;2024-01-10T09:07:42;24.20;60.80
56300;DHT22;42209;6.376;-10.782;2024-01-10T09:10:10;24.40;61.60
56300;DHT22;42209;6.376;-10.782;2024-01-10T09:12:39;24.30;60.90
56300;DHT22;42209;6.376;-10.782;2024-01-10T09:15:07;24.40;58.70
56300;DHT22;42209;6.376;-10.782;2024-01-10T09:17:36;24.30;58.00
56300;DHT22;42209;6.376;-10.782;2024-01-10T09:20:04;24.20;55.60
56300;DHT22;42209;6.376;-10.782;2024-01-10T09:22:33;24.00;54.50
56300;DHT22;42209;6.376;-10.782;2024-01-10T09:25:02;23.80;52.70
56300;DHT22;42209;6.376;-10.782;2024-01-10T09:27:31;23.70;51.50
56300;DHT22;42209;6.376;-10.782;2024-01-10T09:31:15;23.60;50.70
56300;DHT22;42209;6.376;-10.782;2024-01-10T09:33:43;23.90;53.30
56300;DHT22;42209;6.376;-10.782;2024-01-10T09:36:12;24.00;56.10
56300;DHT22;42209;6.376;-10.782;2024-01-10T09:38:40;24.10;58.40
56300;DHT22;42209;6.376;-10.782;2024-01-10T09:41:11;24.20;59.90
56300;DHT22;42209;6.376;-10.782;2024-01-10T09:43:40;24.30;61.00
56300;DHT22;42209;6.376;-10.782;2024-01-10T09:46:08;24.30;59.00
56300;DHT22;42209;6.376;-10.782;2024-01-10T09:48:37;24.10;55.80
56300;DHT22;42209;6.376;-10.782;2024-01-10T09:51:06;24.00;54.50
56300;DHT22;42209;6.376;-10.782;2024-01-10T09:53:36;23.80;52.90
56300;DHT22;42209;6.376;-10.782;2024-01-10T09:56:08;23.60;52.50
56300;DHT22;42209;6.376;-10.782;2024-01-10T09:58:37;23.70;56.30
56300;DHT22;42209;6.376;-10.782;2024-01-10T10:01:06;23.80;58.50
56300;DHT22;42209;6.376;-10.782;2024-01-10T10:03:36;24.00;60.60
56300;DHT22;42209;6.376;-10.782;2024-01-10T10:06:07;24.10;62.50
56300;DHT22;42209;6.376;-10.782;2024-01-10T10:08:40;24.20;64.00
56300;DHT22;42209;6.376;-10.782;2024-01-10T10:11:17;24.30;65.40
56300;DHT22;42209;6.376;-10.782;2024-01-10T10:13:46;24.30;66.50
56300;DHT22;42209;6.376;-10.782;2024-01-10T10:16:23;24.20;62.20
56300;DHT22;42209;6.376;-10.782;2024-01-10T10:18:52;24.00;59.30
56300;DHT22;42209;6.376;-10.782;2024-01-10T10:21:21;23.80;57.40
56300;DHT22;42209;6.376;-10.782;2024-01-10T10:24:00;23.60;55.80
56300;DHT22;42209;6.376;-10.782;2024-01-10T10:26:31;23.70;59.60
56300;DHT22;42209;6.376;-10.782;2024-01-10T10:29:00;23.90;61.60
56300;DHT22;42209;6.376;-10.782;2024-01-10T10:31:29;24.00;63.20
56300;DHT22;42209;6.376;-10.782;2024-01-10T10:33:59;24.10;64.70
56300;DHT22;42209;6.376;-10.782;2024-01-10T10:36:32;24.20;66.00
56300;DHT22;42209;6.376;-10.782;2024-01-10T10:39:01;24.30;67.30
56300;DHT22;42209;6.376;-10.782;2024-01-10T10:41:31;24.30;65.30
56300;DHT22;42209;6.376;-10.782;2024-01-10T10:44:00;24.10;61.70
56300;DHT22;42209;6.376;-10.782;2024-01-10T10:46:32;23.90;59.30
56300;DHT22;42209;6.376;-10.782;2024-01-10T10:49:08;23.70;57.10
56300;DHT22;42209;6.376;-10.782;2024-01-10T10:51:40;23.70;59.00
56300;DHT22;42209;6.376;-10.782;2024-01-10T10:54:09;23.80;61.40
56300;DHT22;42209;6.376;-10.782;2024-01-10T10:56:38;24.00;62.90
56300;DHT22;42209;6.376;-10.782;2024-01-10T10:59:10;24.10;64.30
56300;DHT22;42209;6.376;-10.782;2024-01-10T11:01:40;24.30;65.80
56300;DHT22;42209;6.376;-10.782;2024-01-10T11:04:10;24.30;66.90
56300;DHT22;42209;6.376;-10.782;2024-01-10T11:06:39;24.30;64.40
56300;DHT22;42209;6.376;-10.782;2024-01-10T11:09:10;24.10;61.10
56300;DHT22;42209;6.376;-10.782;2024-01-10T11:17:33;23.70;57.20
56300;DHT22;42209;6.376;-10.782;2024-01-10T11:25:29;24.20;64.00
56300;DHT22;42209;6.376;-10.782;2024-01-10T11:27:57;24.20;65.40
56300;DHT22;42209;6.376;-10.782;2024-01-10T11:30:38;24.40;66.60
56300;DHT22;42209;6.376;-10.782;2024-01-10T11:33:44;24.30;63.70
56300;DHT22;42209;6.376;-10.782;2024-01-10T11:36:17;24.10;60.00
56300;DHT22;42209;6.376;-10.782;2024-01-10T11:39:01;23.90;58.00
56300;DHT22;42209;6.376;-10.782;2024-01-10T11:41:32;23.70;56.10
56300;DHT22;42209;6.376;-10.782;2024-01-10T11:46:41;23.80;60.30
56300;DHT22;42209;6.376;-10.782;2024-01-10T11:49:11;24.00;62.10
56300;DHT22;42209;6.376;-10.782;2024-01-10T11:51:42;24.10;63.70
56300;DHT22;42209;6.376;-10.782;2024-01-10T11:54:36;24.20;65.30
56300;DHT22;42209;6.376;-10.782;2024-01-10T11:57:25;24.30;66.40
56300;DHT22;42209;6.376;-10.782;2024-01-10T11:59:56;24.20;62.00
56300;DHT22;42209;6.376;-10.782;2024-01-10T12:02:24;24.10;60.10
56300;DHT22;42209;6.376;-10.782;2024-01-10T12:04:54;24.00;57.80
56300;DHT22;42209;6.376;-10.782;2024-01-10T12:07:23;24.00;56.60
56300;DHT22;42209;6.376;-10.782;2024-01-10T12:09:51;23.90;55.10
56300;DHT22;42209;6.376;-10.782;2024-01-10T12:12:20;23.90;54.20
56300;DHT22;42209;6.376;-10.782;2024-01-10T12:14:48;23.80;53.30
56300;DHT22;42209;6.376;-10.782;2024-01-10T12:17:18;23.80;52.30
56300;DHT22;42209;6.376;-10.782;2024-01-10T12:19:47;23.70;51.50
56300;DHT22;42209;6.376;-10.782;2024-01-10T12:22:17;23.70;50.70
56300;DHT22;42209;6.376;-10.782;2024-01-10T12:24:49;23.60;50.00
56300;DHT22;42209;6.376;-10.782;2024-01-10T12:27:19;23.60;49.60
56300;DHT22;42209;6.376;-10.782;2024-01-10T12:29:53;23.70;49.00
56300;DHT22;42209;6.376;-10.782;2024-01-10T12:32:22;23.60;48.80
56300;DHT22;42209;6.376;-10.782;2024-01-10T12:35:19;23.60;47.90
56300;DHT22;42209;6.376;-10.782;2024-01-10T12:37:54;23.60;47.80
56300;DHT22;42209;6.376;-10.782;2024-01-10T12:40:23;23.60;47.10
56300;DHT22;42209;6.376;-10.782;2024-01-10T12:43:04;23.60;46.60
56300;DHT22;42209;6.376;-10.782;2024-01-10T12:45:33;23.60;46.10
56300;DHT22;42209;6.376;-10.782;2024-01-10T12:48:02;23.60;46.00
56300;DHT22;42209;6.376;-10.782;2024-01-10T12:50:30;23.60;45.90
56300;DHT22;42209;6.376;-10.782;2024-01-10T12:52:58;23.60;45.80
56300;DHT22;42209;6.376;-10.782;2024-01-10T12:55:30;23.60;45.80
56300;DHT22;42209;6.376;-10.782;2024-01-10T12:57:58;23.60;45.40
56300;DHT22;42209;6.376;-10.782;2024-01-10T13:00:28;23.60;45.00
56300;DHT22;42209;6.376;-10.782;2024-01-10T13:02:57;23.50;45.10
56300;DHT22;42209;6.376;-10.782;2024-01-10T13:05:25;23.50;45.20
56300;DHT22;42209;6.376;-10.782;2024-01-10T13:07:53;23.50;45.10
56300;DHT22;42209;6.376;-10.782;2024-01-10T13:10:22;23.60;45.10
56300;DHT22;42209;6.376;-10.782;2024-01-10T13:12:50;23.60;44.80
56300;DHT22;42209;6.376;-10.782;2024-01-10T13:15:18;23.50;44.70
56300;DHT22;42209;6.376;-10.782;2024-01-10T13:17:47;23.50;44.30
56300;DHT22;42209;6.376;-10.782;2024-01-10T13:20:15;23.50;44.30
56300;DHT22;42209;6.376;-10.782;2024-01-10T13:22:44;23.50;44.40
56300;DHT22;42209;6.376;-10.782;2024-01-10T13:25:12;23.50;44.30
56300;DHT22;42209;6.376;-10.782;2024-01-10T13:27:41;23.50;44.20
56300;DHT22;42209;6.376;-10.782;2024-01-10T13:30:10;23.50;44.20
56300;DHT22;42209;6.376;-10.782;2024-01-10T13:32:39;23.50;44.90
56300;DHT22;42209;6.376;-10.782;2024-01-10T13:35:07;23.50;44.90
56300;DHT22;42209;6.376;-10.782;2024-01-10T13:37:35;23.50;47.90
56300;DHT22;42209;6.376;-10.782;2024-01-10T13:40:05;23.60;46.40
56300;DHT22;42209;6.376;-10.782;2024-01-10T13:42:37;23.60;46.10
56300;DHT22;42209;6.376;-10.782;2024-01-10T13:45:06;23.60;45.80
56300;DHT22;42209;6.376;-10.782;2024-01-10T13:47:34;23.60;45.50
56300;DHT22;42209;6.376;-10.782;2024-01-10T13:50:04;23.60;45.20
56300;DHT22;42209;6.376;-10.782;2024-01-10T13:52:33;23.60;45.00
56300;DHT22;42209;6.376;-10.782;2024-01-10T13:55:01;23.60;44.80
56300;DHT22;42209;6.376;-10.782;2024-01-10T13:57:30;23.60;44.70
56300;DHT22;42209;6.376;-10.782;2024-01-10T14:00:00;23.60;44.40
56300;DHT22;42209;6.376;-10.782;2024-01-10T14:02:37;23.60;44.40
56300;DHT22;42209;6.376;-10.782;2024-01-10T14:05:06;23.60;44.30
56300;DHT22;42209;6.376;-10.782;2024-01-10T14:07:34;23.60;44.00
56300;DHT22;42209;6.376;-10.782;2024-01-10T14:10:03;23.60;43.90
56300;DHT22;42209;6.376;-10.782;2024-01-10T14:12:33;23.60;44.10
56300;DHT22;42209;6.376;-10.782;2024-01-10T14:15:02;23.70;44.00
56300;DHT22;42209;6.376;-10.782;2024-01-10T14:17:30;23.60;44.40
56300;DHT22;42209;6.376;-10.782;2024-01-10T14:19:59;23.60;43.80
56300;DHT22;42209;6.376;-10.782;2024-01-10T14:22:28;23.60;44.00
56300;DHT22;42209;6.376;-10.782;2024-01-10T14:25:00;23.60;43.60
56300;DHT22;42209;6.376;-10.782;2024-01-10T14:27:29;23.60;43.40
56300;DHT22;42209;6.376;-10.782;2024-01-10T14:29:58;23.50;43.20
56300;DHT22;42209;6.376;-10.782;2024-01-10T14:32:26;23.60;43.30
56300;DHT22;42209;6.376;-10.782;2024-01-10T14:34:55;23.60;43.60
56300;DHT22;42209;6.376;-10.782;2024-01-10T14:37:23;23.60;44.10
56300;DHT22;42209;6.376;-10.782;2024-01-10T14:39:52;23.60;44.60
56300;DHT22;42209;6.376;-10.782;2024-01-10T14:42:21;23.60;44.10
56300;DHT22;42209;6.376;-10.782;2024-01-10T14:44:49;23.60;43.90
56300;DHT22;42209;6.376;-10.782;2024-01-10T14:47:17;23.50;43.40
56300;DHT22;42209;6.376;-10.782;2024-01-10T14:49:46;23.50;43.30
56300;DHT22;42209;6.376;-10.782;2024-01-10T14:52:14;23.60;43.20
56300;DHT22;42209;6.376;-10.782;2024-01-10T14:54:43;23.60;43.10
56300;DHT22;42209;6.376;-10.782;2024-01-10T14:57:11;23.60;43.20
56300;DHT22;42209;6.376;-10.782;2024-01-10T14:59:40;23.50;43.20
56300;DHT22;42209;6.376;-10.782;2024-01-10T15:02:15;23.50;42.90
56300;DHT22;42209;6.376;-10.782;2024-01-10T15:04:44;23.50;43.00
56300;DHT22;42209;6.376;-10.782;2024-01-10T15:07:13;23.70;48.50
56300;DHT22;42209;6.376;-10.782;2024-01-10T15:09:43;23.90;52.10
56300;DHT22;42209;6.376;-10.782;2024-01-10T15:12:12;24.10;51.80
56300;DHT22;42209;6.376;-10.782;2024-01-10T15:14:40;24.20;51.90
56300;DHT22;42209;6.376;-10.782;2024-01-10T15:17:10;24.20;51.90
56300;DHT22;42209;6.376;-10.782;2024-01-10T15:19:40;24.30;52.80
56300;DHT22;42209;6.376;-10.782;2024-01-10T15:22:09;24.40;52.10
56300;DHT22;42209;6.376;-10.782;2024-01-10T15:24:37;24.40;52.10
56300;DHT22;42209;6.376;-10.782;2024-01-10T15:27:05;24.40;52.00
56300;DHT22;42209;6.376;-10.782;2024-01-10T15:29:34;24.50;53.20
56300;DHT22;42209;6.376;-10.782;2024-01-10T15:32:03;24.40;52.40
56300;DHT22;42209;6.376;-10.782;2024-01-10T15:34:32;24.30;50.50
56300;DHT22;42209;6.376;-10.782;2024-01-10T15:37:01;24.10;48.90
56300;DHT22;42209;6.376;-10.782;2024-01-10T15:39:29;24.00;48.30
56300;DHT22;42209;6.376;-10.782;2024-01-10T15:41:57;24.00;47.80